Time;durP1;ratioP1;P1;durP2;ratioP2;P2;SDS_P1;SDS_P2;PMS_P1;PMS_P2;Temp;Humidity;BMP_temperature;BMP_pressure;BME280_temperature;BME280_humidity;BME280_pressure;Samples;Min_cycle;Max_cycle;Signal;HPM_P1;HPM_P2
2023/10/31 00:01:15;;;;;;;6.63;5.67;;;;;;;12.45;100.00;99593.47;5336197;27;20034;-74
2023/10/31 00:03:46;;;;;;;7.70;4.93;;;;;;;12.41;100.00;99600.88;5335365;27;20388;-73
2023/10/31 00:06:18;;;;;;;6.55;4.47;;;;;;;12.37;100.00;99600.41;5334171;27;20110;-73
2023/10/31 00:08:50;;;;;;;5.90;3.80;;;;;;;12.40;100.00;99610.56;5332638;27;20046;-73
2023/10/31 00:11:22;;;;;;;6.15;3.67;;;;;;;12.38;100.00;99609.91;5331656;27;20031;-73
2023/10/31 00:13:54;;;;;;;5.90;4.00;;;;;;;12.35;100.00;99618.16;5334791;27;20388;-74
2023/10/31 00:16:26;;;;;;;6.50;3.60;;;;;;;12.35;100.00;99620.78;5336243;27;20122;-73
2023/10/31 00:18:58;;;;;;;6.40;3.60;;;;;;;12.38;100.00;99624.84;5335726;27;20033;-74
2023/10/31 00:21:30;;;;;;;5.72;3.22;;;;;;;12.35;100.00;99618.16;5332306;27;20074;-74
2023/10/31 00:24:03;;;;;;;6.22;3.17;;;;;;;12.35;100.00;99614.69;5333890;27;20033;-74
2023/10/31 00:26:34;;;;;;;5.57;2.55;;;;;;;12.38;100.00;99611.72;5334883;27;20023;-73
2023/10/31 00:29:06;;;;;;;6.78;3.00;;;;;;;12.36;100.00;99619.78;5335446;27;20130;-73
2023/10/31 00:31:41;;;;;;;7.18;2.63;;;;;;;12.36;100.00;99609.28;5334286;27;20041;-74
2023/10/31 00:34:12;;;;;;;7.80;2.70;;;;;;;12.34;100.00;99621.75;5334357;27;20031;-74
2023/10/31 00:36:44;;;;;;;7.03;2.55;;;;;;;12.34;100.00;99615.69;5326622;27;20030;-74
2023/10/31 00:39:16;;;;;;;5.50;2.65;;;;;;;12.35;100.00;99619.94;5335682;27;20102;-74
2023/10/31 00:41:48;;;;;;;4.53;2.30;;;;;;;12.34;100.00;99620.94;5337651;27;20152;-73
2023/10/31 00:44:20;;;;;;;3.92;2.50;;;;;;;12.35;100.00;99626.03;5335663;27;20035;-73
2023/10/31 00:46:52;;;;;;;5.68;2.45;;;;;;;12.39;100.00;99635.22;5336620;27;20031;-74
2023/10/31 00:49:24;;;;;;;4.28;2.15;;;;;;;12.41;100.00;99635.84;5335303;27;20539;-74
2023/10/31 00:51:55;;;;;;;5.70;2.45;;;;;;;12.41;100.00;99643.72;5335240;27;20549;-74
2023/10/31 00:54:27;;;;;;;7.30;2.42;;;;;;;12.43;100.00;99645.38;5335590;27;20535;-73
2023/10/31 00:56:59;;;;;;;6.13;2.42;;;;;;;12.41;100.00;99648.97;5335127;28;20399;-74
2023/10/31 00:59:31;;;;;;;5.47;2.45;;;;;;;12.45;100.00;99643.38;5337658;27;20068;-73
2023/10/31 01:02:03;;;;;;;6.90;2.83;;;;;;;12.38;100.00;99645.88;5338714;27;20134;-74
2023/10/31 01:04:38;;;;;;;5.85;2.80;;;;;;;12.48;100.00;99648.31;5339254;27;20038;-74
2023/10/31 01:07:12;;;;;;;6.00;3.55;;;;;;;12.41;100.00;99658.66;5342259;27;20045;-74
2023/10/31 01:09:44;;;;;;;7.47;4.00;;;;;;;12.32;100.00;99639.50;5340876;27;20031;-74
2023/10/31 01:12:16;;;;;;;8.67;6.63;;;;;;;12.44;100.00;99653.06;5342188;27;20027;-74
2023/10/31 01:14:48;;;;;;;7.43;5.93;;;;;;;12.48;100.00;99659.63;5342128;27;20136;-73
2023/10/31 01:17:20;;;;;;;11.52;7.70;;;;;;;12.41;100.00;99666.53;5340768;27;20041;-74
2023/10/31 01:19:52;;;;;;;12.53;9.10;;;;;;;12.44;100.00;99668.03;5342164;27;20023;-73
2023/10/31 01:22:24;;;;;;;12.98;11.15;;;;;;;12.43;100.00;99661.97;5343258;27;20121;-73
2023/10/31 01:24:55;;;;;;;12.93;10.60;;;;;;;12.43;100.00;99666.41;5341119;27;20029;-74
2023/10/31 01:27:27;;;;;;;16.05;11.50;;;;;;;12.47;100.00;99670.31;5342976;27;20489;-74
2023/10/31 01:29:59;;;;;;;17.52;12.90;;;;;;;12.43;100.00;99671.66;5325271;27;20023;-74
2023/10/31 01:32:31;;;;;;;15.68;13.60;;;;;;;12.29;100.00;99670.53;5342045;27;20038;-74
2023/10/31 01:35:04;;;;;;;16.63;13.60;;;;;;;12.32;100.00;99670.22;5338614;27;20045;-73
2023/10/31 01:37:35;;;;;;;17.20;14.90;;;;;;;12.34;100.00;99665.59;5341702;27;20034;-73
2023/10/31 01:40:08;;;;;;;18.02;16.23;;;;;;;12.31;100.00;99661.50;5340787;27;20024;-73
2023/10/31 01:42:40;;;;;;;18.67;16.58;;;;;;;12.35;100.00;99665.44;5344315;27;20015;-74
2023/10/31 01:45:12;;;;;;;21.63;16.90;;;;;;;12.33;100.00;99666.59;5343791;27;20023;-74
2023/10/31 01:47:47;;;;;;;19.20;17.25;;;;;;;12.32;100.00;99667.59;5337613;27;20032;-73
2023/10/31 01:50:19;;;;;;;21.15;18.42;;;;;;;12.31;100.00;99677.28;5343324;27;20032;-74
2023/10/31 01:52:52;;;;;;;22.52;20.00;;;;;;;12.26;100.00;99657.75;5341821;27;20141;-74
2023/10/31 01:55:27;;;;;;;23.23;18.30;;;;;;;12.31;100.00;99658.88;5343146;27;20039;-74
2023/10/31 01:57:59;;;;;;;21.67;19.50;;;;;;;12.28;100.00;99661.84;5342624;27;20134;-74
2023/10/31 02:00:31;;;;;;;22.65;19.90;;;;;;;12.29;100.00;99663.47;5344255;27;20023;-74
2023/10/31 02:03:04;;;;;;;23.15;20.63;;;;;;;12.26;100.00;99671.69;5343996;27;20388;-74
2023/10/31 02:05:36;;;;;;;;;;;;;;;12.98;100.00;99679.38;5343684;27;20038;-73
2023/10/31 02:08:08;;;;;;;23.20;19.80;;;;;;;12.34;100.00;99679.53;5317340;27;20019;-73
2023/10/31 02:10:40;;;;;;;23.50;21.02;;;;;;;12.34;100.00;99681.34;5341004;27;20031;-73
2023/10/31 02:13:12;;;;;;;25.67;21.40;;;;;;;12.28;100.00;99677.59;5339694;27;20023;-73
2023/10/31 02:15:45;;;;;;;24.83;20.63;;;;;;;12.36;100.00;99682.81;5339053;27;20019;-73
2023/10/31 02:18:17;;;;;;;22.63;20.23;;;;;;;12.34;100.00;99662.97;5339849;27;20269;-73
2023/10/31 02:20:48;;;;;;;21.85;19.65;;;;;;;12.37;100.00;99675.75;5318738;27;20031;-73
2023/10/31 02:23:20;;;;;;;23.27;20.83;;;;;;;12.35;100.00;99669.84;5329773;27;20385;-73
2023/10/31 02:25:52;;;;;;;23.63;20.95;;;;;;;12.33;100.00;99666.59;5338477;27;20072;-73
2023/10/31 02:28:27;;;;;;;26.20;22.10;;;;;;;12.34;100.00;99670.84;5340146;27;20023;-73
2023/10/31 02:30:59;;;;;;;26.60;22.45;;;;;;;12.34;100.00;99674.28;5337363;27;20039;-73
2023/10/31 02:33:31;;;;;;;26.40;22.50;;;;;;;12.41;100.00;99674.44;5339832;27;20058;-73
2023/10/31 02:36:03;;;;;;;27.92;23.80;;;;;;;12.38;100.00;99675.56;5339156;27;20434;-73
2023/10/31 02:38:35;;;;;;;25.50;22.85;;;;;;;12.33;100.00;99677.09;5320892;27;20506;-73
2023/10/31 02:41:07;;;;;;;27.60;24.58;;;;;;;12.28;100.00;99669.72;5336817;27;20019;-75
2023/10/31 02:43:40;;;;;;;26.90;23.90;;;;;;;12.25;100.00;99677.13;5338415;27;20027;-74
2023/10/31 02:46:14;;;;;;;28.00;23.77;;;;;;;12.30;100.00;99685.31;5337504;27;20028;-75
2023/10/31 02:48:46;;;;;;;27.25;24.35;;;;;;;12.29;100.00;99689.75;5339425;27;20046;-74
2023/10/31 02:51:18;;;;;;;28.60;25.40;;;;;;;12.33;100.00;99691.03;5331326;27;20016;-75
2023/10/31 02:53:50;;;;;;;26.77;23.88;;;;;;;12.33;100.00;99691.03;5335664;27;20047;-73
2023/10/31 02:56:23;;;;;;;27.02;24.13;;;;;;;12.31;100.00;99695.66;5335590;27;20027;-73
2023/10/31 02:58:54;;;;;;;26.73;23.92;;;;;;;12.27;100.00;99688.25;5339029;27;20026;-73
2023/10/31 03:01:29;;;;;;;26.60;23.73;;;;;;;12.37;100.00;99700.22;5338807;27;20506;-74
2023/10/31 03:04:01;;;;;;;27.67;23.75;;;;;;;12.29;100.00;99700.25;5340104;27;20610;-73
2023/10/31 03:06:33;;;;;;;27.05;24.27;;;;;;;12.29;100.00;99705.50;5337963;27;20023;-74
2023/10/31 03:09:06;;;;;;;27.23;24.33;;;;;;;12.28;100.00;99703.06;5337336;27;20019;-74
2023/10/31 03:11:38;;;;;;;26.02;23.35;;;;;;;12.32;100.00;99707.78;5336969;27;20023;-74
2023/10/31 03:14:10;;;;;;;27.75;24.70;;;;;;;12.31;100.00;99711.41;5337668;27;20037;-73
2023/10/31 03:16:42;;;;;;;27.52;24.25;;;;;;;12.29;100.00;99710.75;5338586;27;20027;-73
2023/10/31 03:19:14;;;;;;;27.42;24.75;;;;;;;12.32;100.00;99725.38;5331996;27;20027;-74
2023/10/31 03:21:46;;;;;;;26.73;23.92;;;;;;;12.33;100.00;99734.88;5335294;27;20023;-74
2023/10/31 03:24:18;;;;;;;27.40;24.70;;;;;;;12.33;100.00;99745.38;5333976;27;20417;-73
2023/10/31 03:26:49;;;;;;;28.48;25.55;;;;;;;12.31;100.00;99732.44;5339229;27;20026;-73
2023/10/31 03:29:21;;;;;;;28.33;25.52;;;;;;;12.38;100.00;99743.06;5335871;27;20023;-73
2023/10/31 03:31:53;;;;;;;29.00;26.08;;;;;;;12.38;100.00;99746.50;5336860;27;20035;-73
2023/10/31 03:34:25;;;;;;;29.98;26.77;;;;;;;12.34;100.00;99747.81;5338233;27;20019;-73
2023/10/31 03:36:57;;;;;;;27.80;24.95;;;;;;;12.36;100.00;99753.75;5338514;27;20033;-73
2023/10/31 03:39:29;;;;;;;30.73;27.42;;;;;;;12.43;100.00;99753.06;5338695;27;20106;-74
2023/10/31 03:42:01;;;;;;;32.27;27.93;;;;;;;12.44;100.00;99758.16;5337732;27;20388;-73
2023/10/31 03:44:33;;;;;;;30.80;27.50;;;;;;;12.44;100.00;99760.78;5337456;27;20020;-73
2023/10/31 03:47:05;;;;;;;30.40;27.25;;;;;;;12.44;100.00;99757.34;5332716;27;20034;-73
2023/10/31 03:49:40;;;;;;;29.95;26.90;;;;;;;12.47;100.00;99751.75;5333641;27;20031;-73
2023/10/31 03:52:12;;;;;;;30.92;27.25;;;;;;;12.50;100.00;99772.41;5338650;27;20055;-73
2023/10/31 03:54:44;;;;;;;31.27;28.02;;;;;;;12.48;100.00;99771.78;5337313;27;20041;-74
2023/10/31 03:57:16;;;;;;;32.17;28.75;;;;;;;12.47;100.00;99778.84;5335379;27;20038;-73
2023/10/31 03:59:48;;;;;;;31.17;27.95;;;;;;;12.52;100.00;99783.56;5312800;27;20031;-73
2023/10/31 04:02:20;;;;;;;31.77;28.40;;;;;;;12.46;100.00;99777.16;5337137;27;20027;-73
2023/10/31 04:04:51;;;;;;;28.60;25.67;;;;;;;12.49;100.00;99783.91;5337701;27;20106;-74
2023/10/31 04:07:23;;;;;;;30.55;27.45;;;;;;;12.45;100.00;99786.03;5336231;27;20035;-73
2023/10/31 04:09:56;;;;;;;29.77;26.77;;;;;;;12.41;100.00;99775.06;5335792;27;20481;-73
2023/10/31 04:12:28;;;;;;;28.27;25.45;;;;;;;12.38;100.00;99785.06;5339242;27;20394;-75
2023/10/31 04:15:00;;;;;;;29.13;26.05;;;;;;;12.38;100.00;99785.88;5320153;27;20025;-74
2023/10/31 04:17:32;;;;;;;26.30;23.83;;;;;;;12.37;100.00;99792.13;5338108;27;20030;-73
2023/10/31 04:20:04;;;;;;;27.50;23.77;;;;;;;12.34;100.00;99789.84;5335653;27;20357;-74
2023/10/31 04:22:36;;;;;;;26.30;23.48;;;;;;;12.41;100.00;99796.06;5337372;27;20032;-73
2023/10/31 04:25:08;;;;;;;28.27;23.77;;;;;;;12.39;100.00;99799.88;5336156;27;20488;-74
2023/10/31 04:27:40;;;;;;;25.17;22.67;;;;;;;12.38;100.00;99804.28;5336760;27;20034;-74
2023/10/31 04:30:12;;;;;;;24.27;21.73;;;;;;;12.34;100.00;99805.59;5335301;27;20015;-74
2023/10/31 04:32:44;;;;;;;23.50;21.13;;;;;;;12.37;100.00;99810.53;5336829;27;20511;-73
2023/10/31 04:35:16;;;;;;;23.38;20.98;;;;;;;12.34;100.00;99808.22;5335338;27;20019;-74
2023/10/31 04:37:48;;;;;;;23.17;20.92;;;;;;;12.42;100.00;99820.53;5319499;27;21100;-73
2023/10/31 04:40:19;;;;;;;22.73;20.40;;;;;;;12.44;100.00;99820.38;5330906;27;20107;-75
2023/10/31 04:42:51;;;;;;;22.58;20.38;;;;;;;12.39;100.00;99821.69;5334270;27;20045;-73
2023/10/31 04:45:23;;;;;;;21.92;19.83;;;;;;;12.43;100.00;99835.31;5336851;27;20115;-74
2023/10/31 04:47:55;;;;;;;22.50;20.20;;;;;;;12.42;100.00;99828.41;5334902;27;20507;-73
2023/10/31 04:50:27;;;;;;;21.25;19.10;;;;;;;12.46;100.00;99844.66;5333722;27;20429;-73
2023/10/31 04:52:59;;;;;;;18.80;16.80;;;;;;;12.46;100.00;99844.66;5335899;27;20058;-73
2023/10/31 04:55:31;;;;;;;18.83;16.88;;;;;;;12.39;100.00;99847.16;5335505;27;20038;-73
2023/10/31 04:58:03;;;;;;;16.98;15.27;;;;;;;12.43;100.00;99852.91;5338314;28;20034;-73
2023/10/31 05:00:35;;;;;;;18.08;16.38;;;;;;;12.37;100.00;99851.72;5338232;28;20033;-73
2023/10/31 05:03:07;;;;;;;17.27;15.57;;;;;;;12.41;100.00;99851.22;5336414;28;20566;-73
2023/10/31 05:05:39;;;;;;;19.38;17.58;;;;;;;12.35;100.00;99843.19;5335839;28;20043;-72
2023/10/31 05:08:10;;;;;;;20.52;18.48;;;;;;;12.43;100.00;99855.53;5304735;28;20035;-73
2023/10/31 05:10:42;;;;;;;21.33;19.33;;;;;;;12.39;100.00;99850.59;5337714;28;20035;-73
2023/10/31 05:13:14;;;;;;;22.70;20.50;;;;;;;12.37;100.00;99849.09;5335887;28;20114;-73
2023/10/31 05:15:46;;;;;;;23.10;21.00;;;;;;;12.41;100.00;99845.16;5336386;28;20029;-73
2023/10/31 05:18:18;;;;;;;22.48;20.40;;;;;;;12.38;100.00;99845.50;5334607;28;20028;-73
2023/10/31 05:20:50;;;;;;;20.33;18.58;;;;;;;12.43;100.00;99847.66;5337282;27;20037;-72
2023/10/31 05:23:22;;;;;;;22.08;19.85;;;;;;;12.36;100.00;99847.47;5335508;28;20396;-72
2023/10/31 05:25:55;;;;;;;20.75;18.73;;;;;;;12.32;100.00;99848.78;5334019;28;20027;-74
2023/10/31 05:28:27;;;;;;;21.60;19.52;;;;;;;12.37;100.00;99842.03;5312727;28;20059;-73
2023/10/31 05:30:59;;;;;;;21.25;19.15;;;;;;;12.27;100.00;99843.19;5337897;28;20029;-73
2023/10/31 05:33:31;;;;;;;20.02;18.33;;;;;;;12.28;100.00;99840.44;5333953;28;20035;-74
2023/10/31 05:36:03;;;;;;;19.55;17.75;;;;;;;12.32;100.00;99839.09;5320473;28;20027;-73
2023/10/31 05:38:35;;;;;;;20.05;18.15;;;;;;;12.33;100.00;99839.91;5334782;28;20481;-73
2023/10/31 05:41:08;;;;;;;20.25;18.38;;;;;;;12.32;100.00;99852.25;5334181;28;20031;-73
2023/10/31 05:43:40;;;;;;;20.65;18.65;;;;;;;12.38;100.00;99862.06;5332497;28;20516;-73
2023/10/31 05:46:14;;;;;;;19.77;17.88;;;;;;;12.31;100.00;99870.78;5336345;27;20035;-73
2023/10/31 05:48:46;;;;;;;18.73;16.90;;;;;;;12.29;100.00;99878.81;5340771;27;20716;-73
2023/10/31 05:51:19;;;;;;;18.52;16.92;;;;;;;12.22;100.00;99863.91;5338975;27;20026;-73
2023/10/31 05:53:51;;;;;;;18.37;16.77;;;;;;;12.22;100.00;99879.66;5339492;27;20408;-74
2023/10/31 05:56:23;;;;;;;18.38;16.67;;;;;;;12.16;100.00;99883.78;5339441;27;20265;-73
2023/10/31 05:58:54;;;;;;;18.48;16.88;;;;;;;12.13;100.00;99890.16;5340358;27;20035;-73
2023/10/31 06:01:27;;;;;;;17.07;15.40;;;;;;;12.10;100.00;99892.28;5320771;27;20031;-73
2023/10/31 06:03:59;;;;;;;18.52;16.80;;;;;;;12.11;100.00;99894.72;5328801;27;20319;-74
2023/10/31 06:06:32;;;;;;;16.13;14.52;;;;;;;12.04;100.00;99893.75;5338601;27;20043;-73
2023/10/31 06:09:04;;;;;;;17.02;15.25;;;;;;;12.02;100.00;99900.97;5335899;27;20054;-74
2023/10/31 06:11:39;;;;;;;15.00;13.70;;;;;;;11.98;100.00;99909.34;5336555;27;20023;-74
2023/10/31 06:14:11;;;;;;;17.00;15.35;;;;;;;11.89;100.00;99901.47;5341116;27;20034;-73
2023/10/31 06:16:44;;;;;;;16.65;15.00;;;;;;;11.79;100.00;99894.69;5341840;27;20034;-73
2023/10/31 06:19:15;;;;;;;17.20;15.65;;;;;;;11.83;100.00;99914.38;5334902;27;20023;-73
2023/10/31 06:21:48;;;;;;;16.83;15.32;;;;;;;11.80;100.00;99918.13;5337057;27;20029;-74
2023/10/31 06:24:20;;;;;;;17.48;15.90;;;;;;;11.81;100.00;99922.38;5339453;27;20030;-73
2023/10/31 06:26:52;;;;;;;18.30;16.40;;;;;;;11.77;100.00;99921.06;5339830;27;20500;-73
2023/10/31 06:29:24;;;;;;;17.10;15.60;;;;;;;11.85;100.00;99928.16;5332620;27;20031;-73
2023/10/31 06:31:56;;;;;;;17.38;15.88;;;;;;;11.83;100.00;99941.47;5335832;27;20068;-73
2023/10/31 06:34:27;;;;;;;18.60;16.83;;;;;;;11.86;100.00;99941.16;5338658;27;20031;-73
2023/10/31 06:36:59;;;;;;;18.70;16.92;;;;;;;11.86;100.00;99938.53;5337987;27;20031;-74
2023/10/31 06:39:32;;;;;;;18.67;17.08;;;;;;;11.85;100.00;99938.66;5340700;27;20049;-74
2023/10/31 06:42:04;;;;;;;19.75;17.77;;;;;;;11.91;100.00;99940.66;5340551;27;20027;-74
2023/10/31 06:44:36;;;;;;;19.47;17.70;;;;;;;11.90;100.00;99949.53;5340078;27;20030;-73
2023/10/31 06:47:08;;;;;;;19.65;17.95;;;;;;;11.92;100.00;99945.72;5338488;27;20045;-74
2023/10/31 06:49:40;;;;;;;18.75;17.15;;;;;;;11.91;100.00;99944.09;5338654;27;20019;-73
2023/10/31 06:52:12;;;;;;;20.45;18.65;;;;;;;11.98;100.00;99951.34;5338270;27;20043;-73
2023/10/31 06:54:44;;;;;;;18.83;16.95;;;;;;;11.99;100.00;99963.47;5327696;27;20036;-73
2023/10/31 06:57:16;;;;;;;16.77;15.38;;;;;;;11.97;100.00;99962.81;5336145;27;20046;-74
2023/10/31 06:59:48;;;;;;;17.13;15.63;;;;;;;11.97;100.00;99962.81;5334241;27;20488;-73
2023/10/31 07:02:20;;;;;;;16.30;14.73;;;;;;;11.99;100.00;99963.47;5336727;27;20381;-73
2023/10/31 07:04:51;;;;;;;18.02;16.45;;;;;;;11.95;100.00;99960.34;5317487;27;20438;-73
2023/10/31 07:07:23;;;;;;;15.82;14.43;;;;;;;11.97;100.00;99961.03;5320085;27;20035;-73
2023/10/31 07:09:55;;;;;;;15.80;14.32;;;;;;;11.96;100.00;99958.53;5335611;27;20032;-73
2023/10/31 07:12:28;;;;;;;14.38;13.05;;;;;;;11.92;100.00;99968.53;5336411;27;20041;-73
2023/10/31 07:14:59;;;;;;;15.93;14.52;;;;;;;11.96;100.00;99969.84;5336657;27;20734;-73
2023/10/31 07:17:31;;;;;;;15.35;13.75;;;;;;;11.95;100.00;99967.41;5336976;27;20025;-73
2023/10/31 07:20:05;;;;;;;13.48;12.38;;;;;;;11.91;100.00;99970.34;5337611;27;20026;-74
2023/10/31 07:22:37;;;;;;;13.88;12.57;;;;;;;11.92;100.00;99971.97;5337408;27;20063;-73
2023/10/31 07:25:09;;;;;;;13.30;12.10;;;;;;;11.85;100.00;99984.09;5337318;27;20396;-74
2023/10/31 07:27:41;;;;;;;13.93;12.63;;;;;;;11.91;100.00;99978.22;5337428;27;20114;-74
2023/10/31 07:30:13;;;;;;;12.63;11.48;;;;;;;11.99;100.00;99984.47;5337949;27;20027;-73
2023/10/31 07:32:45;;;;;;;13.02;11.77;;;;;;;11.91;100.00;99983.47;5339324;27;20026;-75
2023/10/31 07:35:19;;;;;;;13.13;11.90;;;;;;;11.97;100.00;99986.44;5334642;27;20035;-73
2023/10/31 07:37:51;;;;;;;12.18;11.07;;;;;;;11.97;100.00;99989.91;5335918;27;20031;-73
2023/10/31 07:40:23;;;;;;;13.85;11.80;;;;;;;11.98;100.00;99988.09;5336766;27;20465;-75
2023/10/31 07:42:55;;;;;;;12.95;11.77;;;;;;;11.98;100.00;99990.72;5335509;27;20379;-73
2023/10/31 07:45:27;;;;;;;13.40;12.13;;;;;;;11.96;100.00;99992.66;5337299;27;20159;-73
2023/10/31 07:47:58;;;;;;;13.20;11.90;;;;;;;11.95;100.00;100001.53;5336867;27;20031;-73
2023/10/31 07:50:31;;;;;;;13.90;12.02;;;;;;;11.98;100.00;99988.91;5336044;27;20027;-74
2023/10/31 07:53:02;;;;;;;13.23;12.13;;;;;;;11.98;100.00;99986.28;5308391;28;20047;-74
2023/10/31 07:55:34;;;;;;;13.43;12.23;;;;;;;12.01;100.00;99996.47;5316004;28;20030;-73
2023/10/31 07:58:06;;;;;;;14.35;13.05;;;;;;;12.04;100.00;99990.06;5317671;28;20473;-74
2023/10/31 08:00:39;;;;;;;14.68;13.32;;;;;;;12.05;100.00;99995.16;5316156;28;20053;-74
2023/10/31 08:03:10;;;;;;;15.35;14.00;;;;;;;12.08;100.00;99999.25;5315763;27;20061;-74
2023/10/31 08:05:42;;;;;;;16.25;14.55;;;;;;;12.08;100.00;100001.88;5312377;28;20037;-74
2023/10/31 08:08:14;;;;;;;16.85;15.35;;;;;;;12.19;100.00;100004.22;5307784;28;20077;-74
2023/10/31 08:10:46;;;;;;;18.10;16.60;;;;;;;12.28;100.00;100013.75;5306136;28;20031;-74
2023/10/31 08:13:18;;;;;;;19.95;18.13;;;;;;;12.31;100.00;100009.97;5316650;27;20059;-74
2023/10/31 08:15:50;;;;;;;21.50;19.70;;;;;;;12.32;100.00;100014.25;5302073;28;20027;-74
2023/10/31 08:18:24;;;;;;;20.77;18.88;;;;;;;12.34;100.00;100017.53;5300263;28;20032;-74
2023/10/31 08:20:55;;;;;;;21.10;19.20;;;;;;;12.35;100.00;100017.38;5298005;28;20032;-74
2023/10/31 08:23:28;;;;;;;20.65;18.75;;;;;;;12.30;100.00;100018.84;5314516;28;20028;-74
2023/10/31 08:26:00;;;;;;;19.75;17.75;;;;;;;12.36;100.00;100012.94;5313460;28;20030;-74
2023/10/31 08:28:32;;;;;;;19.27;17.38;;;;;;;12.35;100.00;100013.91;5308668;28;20400;-74
2023/10/31 08:31:04;;;;;;;18.67;17.05;;;;;;;12.35;100.00;100016.53;5300964;28;20024;-74
2023/10/31 08:33:36;;;;;;;18.30;16.60;;;;;;;12.37;100.00;100020.66;5298910;28;20469;-74
2023/10/31 08:36:08;;;;;;;19.73;17.73;;;;;;;12.39;100.00;100025.78;5292639;28;20032;-74
2023/10/31 08:38:40;;;;;;;19.20;17.13;;;;;;;12.48;100.00;100021.34;5313388;28;20369;-74
2023/10/31 08:41:12;;;;;;;18.65;16.65;;;;;;;12.46;100.00;100018.84;5300212;28;20031;-74
2023/10/31 08:43:44;;;;;;;19.13;17.13;;;;;;;12.54;100.00;100024.16;5305037;28;20032;-74
2023/10/31 08:46:16;;;;;;;18.60;16.60;;;;;;;12.58;100.00;100025.47;5315137;28;20031;-75
2023/10/31 08:48:48;;;;;;;19.45;17.45;;;;;;;12.62;100.00;100031.22;5314806;28;20500;-74
2023/10/31 08:51:20;;;;;;;18.95;17.02;;;;;;;12.64;100.00;100050.25;5317123;28;20062;-74
2023/10/31 08:53:52;;;;;;;18.05;16.20;;;;;;;12.63;100.00;100051.25;5333178;27;20048;-74
2023/10/31 08:56:24;;;;;;;20.13;16.70;;;;;;;12.69;100.00;100047.97;5315528;28;20377;-73
2023/10/31 08:58:56;;;;;;;18.77;16.88;;;;;;;12.70;100.00;100059.31;5333342;27;20603;-74
2023/10/31 09:01:30;;;;;;;18.02;16.23;;;;;;;12.73;100.00;100065.06;5336251;28;20018;-74
2023/10/31 09:04:03;;;;;;;17.70;15.95;;;;;;;12.72;100.00;100065.19;5332001;28;20035;-74
2023/10/31 09:06:34;;;;;;;18.05;16.15;;;;;;;12.79;100.00;100072.28;5335234;28;20476;-74
2023/10/31 09:09:06;;;;;;;18.20;16.40;;;;;;;12.80;100.00;100081.78;5333353;28;20027;-74
2023/10/31 09:11:39;;;;;;;18.85;16.90;;;;;;;12.77;100.00;100084.78;5333667;28;20037;-74
2023/10/31 09:14:10;;;;;;;21.07;16.30;;;;;;;12.86;100.00;100089.03;5316017;28;20035;-75
2023/10/31 09:16:42;;;;;;;17.85;16.00;;;;;;;12.83;100.00;100083.28;5312248;28;20338;-74
2023/10/31 09:19:14;;;;;;;17.42;15.63;;;;;;;12.82;100.00;100090.34;5305402;28;20032;-75
2023/10/31 09:21:46;;;;;;;18.70;16.73;;;;;;;12.84;100.00;100098.91;5306651;27;20016;-74
2023/10/31 09:24:18;;;;;;;17.67;15.98;;;;;;;12.82;100.00;100102.69;5305232;28;20044;-74
2023/10/31 09:26:50;;;;;;;17.17;15.57;;;;;;;12.91;100.00;100105.13;5318479;28;20042;-73
2023/10/31 09:29:22;;;;;;;18.40;16.60;;;;;;;12.95;100.00;100115.31;5318698;28;20024;-75
2023/10/31 09:31:54;;;;;;;17.25;15.55;;;;;;;13.02;100.00;100109.25;5317049;27;20028;-74
2023/10/31 09:34:25;;;;;;;18.25;16.23;;;;;;;12.95;100.00;100120.59;5310930;28;20036;-75
2023/10/31 09:36:58;;;;;;;19.52;15.95;;;;;;;13.05;100.00;100124.72;5314195;28;20032;-75
2023/10/31 09:39:30;;;;;;;17.83;15.98;;;;;;;13.19;100.00;100138.22;5312496;28;20397;-75
2023/10/31 09:42:02;;;;;;;17.65;15.88;;;;;;;13.25;100.00;100142.81;5314827;28;20022;-75
2023/10/31 09:44:34;;;;;;;17.50;15.73;;;;;;;13.18;100.00;100140.00;5314652;28;20047;-75
2023/10/31 09:47:06;;;;;;;17.23;15.53;;;;;;;13.07;100.00;100141.16;5315247;28;20042;-75
2023/10/31 09:49:38;;;;;;;16.77;15.20;;;;;;;13.05;100.00;100144.94;5318654;27;20032;-74
2023/10/31 09:52:10;;;;;;;17.05;15.50;;;;;;;13.06;100.00;100143.94;5315711;28;20146;-75
2023/10/31 09:54:44;;;;;;;15.23;13.82;;;;;;;13.10;100.00;100148.69;5316374;28;20491;-75
2023/10/31 09:57:17;;;;;;;;;;;;;;;13.86;100.00;100141.44;5317740;28;20039;-75
2023/10/31 09:59:49;;;;;;;15.73;14.20;;;;;;;13.32;100.00;100139.38;5316595;28;19916;-75
2023/10/31 10:02:21;;;;;;;15.82;14.00;;;;;;;13.43;100.00;100142.66;5316902;28;20026;-75
2023/10/31 10:04:53;;;;;;;16.05;14.63;;;;;;;13.47;100.00;100146.59;5315168;28;20119;-74
2023/10/31 10:07:26;;;;;;;15.50;13.98;;;;;;;13.53;100.00;100154.66;5314920;28;20039;-75
2023/10/31 10:10:00;;;;;;;15.25;13.77;;;;;;;13.61;100.00;100153.84;5326967;27;20039;-74
2023/10/31 10:12:32;;;;;;;15.38;13.25;;;;;;;13.62;100.00;100161.53;5336454;27;20043;-73
2023/10/31 10:15:04;;;;;;;15.63;13.52;;;;;;;13.52;100.00;100157.44;5335823;27;20473;-75
2023/10/31 10:17:36;;;;;;;14.77;13.25;;;;;;;13.47;100.00;100160.56;5338025;27;20464;-75
2023/10/31 10:20:10;;;;;;;14.38;13.07;;;;;;;13.54;100.00;100176.53;5337673;27;20027;-75
2023/10/31 10:22:43;;;;;;;14.35;12.80;;;;;;;13.49;100.00;100176.22;5337779;27;20031;-74
2023/10/31 10:25:18;;;;;;;14.30;12.20;;;;;;;13.46;100.00;100180.00;5335483;27;20365;-73
2023/10/31 10:27:49;;;;;;;13.80;12.40;;;;;;;13.50;100.00;100177.84;5336160;27;20050;-75
2023/10/31 10:30:21;;;;;;;14.15;12.80;;;;;;;13.56;100.00;100179.81;5315689;27;20036;-74
2023/10/31 10:32:53;;;;;;;14.63;12.35;;;;;;;13.63;100.00;100183.41;5337072;27;20035;-74
2023/10/31 10:35:25;;;;;;;11.57;10.38;;;;;;;13.65;100.00;100192.00;5336640;27;20379;-75
2023/10/31 10:37:59;;;;;;;12.48;11.27;;;;;;;13.67;100.00;100197.06;5330097;27;20035;-74
2023/10/31 10:40:30;;;;;;;12.82;11.52;;;;;;;13.67;100.00;100197.88;5335549;27;20035;-75
2023/10/31 10:43:08;;;;;;;11.90;10.70;;;;;;;13.84;100.00;100198.72;5335605;27;20022;-75
2023/10/31 10:45:43;;;;;;;14.02;11.48;;;;;;;13.82;100.00;100204.13;5337751;27;20027;-75
2023/10/31 10:48:16;;;;;;;11.85;10.60;;;;;;;13.72;100.00;100215.84;5338212;27;20037;-74
2023/10/31 10:50:57;;;;;;;11.40;10.27;;;;;;;13.85;100.00;100214.34;5336024;27;20031;-75
2023/10/31 10:53:35;;;;;;;13.43;10.98;;;;;;;13.76;100.00;100214.53;5337410;27;20515;-75
2023/10/31 10:56:16;;;;;;;12.13;10.02;;;;;;;13.79;100.00;100215.03;5336758;27;20030;-75
2023/10/31 10:58:55;;;;;;;11.52;10.32;;;;;;;13.71;100.00;100215.00;5336469;27;20042;-75
2023/10/31 11:01:28;;;;;;;12.68;11.43;;;;;;;13.48;100.00;100209.56;5336488;27;20033;-75
2023/10/31 11:04:00;;;;;;;11.90;10.80;;;;;;;13.57;100.00;100213.88;5328042;27;20476;-74
2023/10/31 11:06:33;;;;;;;12.95;11.68;;;;;;;13.59;100.00;100208.44;5337340;27;20027;-74
2023/10/31 11:09:08;;;;;;;13.95;11.95;;;;;;;13.66;100.00;100205.97;5337256;27;20019;-74
2023/10/31 11:11:41;;;;;;;13.18;11.88;;;;;;;13.65;100.00;100202.53;5337015;27;20035;-74
2023/10/31 11:14:13;;;;;;;13.65;12.27;;;;;;;13.71;100.00;100212.38;5337854;27;20023;-75
2023/10/31 11:16:51;;;;;;;13.88;12.50;;;;;;;13.79;100.00;100211.56;5334100;27;20035;-74
2023/10/31 11:19:24;;;;;;;13.77;12.40;;;;;;;13.60;100.00;100213.56;5333989;27;20378;-74
2023/10/31 11:22:01;;;;;;;14.40;12.93;;;;;;;13.90;100.00;100218.28;5335917;27;20027;-75
2023/10/31 11:24:37;;;;;;;13.88;12.50;;;;;;;13.70;100.00;100213.34;5336309;27;20027;-75
2023/10/31 11:27:09;;;;;;;12.70;11.35;;;;;;;13.77;100.00;100219.59;5334830;27;20468;-74
2023/10/31 11:29:41;;;;;;;12.20;11.05;;;;;;;13.83;100.00;100228.66;5318881;27;20054;-75
2023/10/31 11:32:14;;;;;;;11.90;10.80;;;;;;;13.83;100.00;100226.84;5328050;27;20024;-73